Time;durP1;ratioP1;P1;durP2;ratioP2;P2;SDS_P1;SDS_P2;PMS_P1;PMS_P2;Temp;Humidity;BMP_temperature;BMP_pressure;BME280_temperature;BME280_humidity;BME280_pressure;Samples;Min_cycle;Max_cycle;Signal;HPM_P1;HPM_P2
2021/03/09 05:39:26;;;;;;;;;;;;;;;-4.71;69.95;100375.13;1760231;79;20138;-38
2021/03/09 05:41:53;;;;;;;;;;;;;;;-4.66;69.97;100381.80;1767144;80;20467;-38
2021/03/09 05:44:21;;;;;;;;;;;;;;;-4.62;69.96;100373.55;1757770;79;20118;-39
2021/03/09 05:46:49;;;;;;;;;;;;;;;-4.58;70.00;100377.66;1747652;80;20184;-35
2021/03/09 05:49:17;;;;;;;;;;;;;;;-4.50;69.82;100382.35;1731020;81;20512;-35
2021/03/09 05:51:47;;;;;;;;;;;;;;;-4.44;69.87;100384.00;1734698;80;20181;-39
2021/03/09 05:54:14;;;;;;;;;;;;;;;-4.37;69.49;100389.56;1739341;81;20516;-39
2021/03/09 05:56:43;;;;;;;;;;;;;;;-4.32;69.16;100394.56;1746592;81;20482;-40
2021/03/09 05:59:11;;;;;;;;;;;;;;;-4.30;68.91;100405.74;1746750;82;20189;-40
2021/03/09 06:01:38;;;;;;;;;;;;;;;-4.29;68.89;100413.92;1725875;81;20552;-35
2021/03/09 06:04:06;;;;;;;;;;;;;;;-4.24;68.99;100412.89;1756268;81;20161;-39
2021/03/09 06:06:34;;;;;;;;;;;;;;;-4.18;68.86;100414.55;1759683;80;20909;-40
2021/03/09 06:09:02;;;;;;;;;;;;;;;-4.12;68.93;100418.74;1759882;80;20223;-40
2021/03/09 06:11:31;;;;;;;;;;;;;;;-4.03;69.21;100416.75;1757475;79;20666;-39
2021/03/09 06:13:59;;;;;;;;;;;;;;;-3.93;69.16;100427.54;1767737;80;20181;-38
2021/03/09 06:16:28;;;;;;;;;;;;;;;-3.81;68.66;100434.26;1754948;79;20497;-35
2021/03/09 06:18:57;;;;;;;;;;;;;;;-3.71;67.46;100436.06;1739985;80;20482;-40
2021/03/09 06:21:25;;;;;;;;;;;;;;;-3.67;67.40;100440.17;1754872;79;20792;-39
2021/03/09 06:23:53;;;;;;;;;;;;;;;-3.61;67.48;100444.77;1764893;79;20565;-39
2021/03/09 06:26:35;;;;;;;;;;;;;;;-3.51;66.97;100444.12;1765291;79;20281;-40
2021/03/09 06:29:20;;;;;;;;;;;;;;;-3.42;66.56;100452.73;1764548;80;20180;-40
2021/03/09 06:32:18;;;;;;;;;;;;;;;-3.33;66.65;100449.41;1743317;81;20173;-34
2021/03/09 06:34:45;;;;;;;;;;;;;;;-3.21;66.20;100451.39;1745992;79;20194;-35
2021/03/09 06:37:20;;;;;;;;;;;;;;;-3.12;66.33;100455.29;1731126;81;20180;-35
2021/03/09 06:40:00;;;;;;;;;;;;;;;-3.04;66.07;100457.87;1766156;79;20698;-34
2021/03/09 06:42:35;;;;;;;;;;;;;;;-2.98;66.14;100455.26;1733818;80;20166;-35
2021/03/09 06:45:08;;;;;;;;;;;;;;;-2.90;66.16;100465.92;1740219;82;20507;-33
2021/03/09 06:47:40;;;;;;;;;;;;;;;-2.84;66.01;100471.78;1733774;81;20185;-36
2021/03/09 06:50:17;;;;;;;;;;;;;;;-2.76;65.45;100470.15;1758834;80;20194;-35
2021/03/09 06:52:47;;;;;;;;;;;;;;;-2.71;66.04;100468.73;1765633;80;20550;-34
2021/03/09 06:55:14;;;;;;;;;;;;;;;-2.63;65.24;100466.58;1716135;80;20138;-40
2021/03/09 06:57:42;;;;;;;;;;;;;;;-2.59;64.60;100472.77;1773568;79;20162;-39
2021/03/09 07:00:10;;;;;;;;;;;;;;;-2.62;64.09;100472.19;1746981;79;20178;-39
2021/03/09 07:02:38;;;;;;;;;;;;;;;-2.62;64.28;100472.19;1732735;81;20182;-38
2021/03/09 07:05:09;;;;;;;;;;;;;;;-2.58;64.54;100475.81;1754474;81;20170;-40
2021/03/09 07:07:41;;;;;;;;;;;;;;;-2.52;63.97;100475.74;1754282;81;20492;-35
2021/03/09 07:10:14;;;;;;;;;;;;;;;-2.49;63.58;100472.48;1751710;79;20184;-34
2021/03/09 07:12:43;;;;;;;;;;;;;;;-2.46;63.56;100476.48;1754017;79;20240;-40
2021/03/09 07:15:13;;;;;;;;;;;;;;;-2.44;63.00;100480.87;1737092;79;20229;-34
2021/03/09 07:17:41;;;;;;;;;;;;;;;-2.42;62.78;100480.98;1752592;81;20568;-35
2021/03/09 07:20:11;;;;;;;;;;;;;;;-2.38;63.25;100486.73;1754764;80;20299;-35
2021/03/09 07:22:41;;;;;;;;;;;;;;;-2.29;63.46;100483.41;1727542;82;20180;-39
2021/03/09 07:25:16;;;;;;;;;;;;;;;-2.23;62.58;100480.29;1765207;81;20502;-35
2021/03/09 07:28:01;;;;;;;;;;;;;;;-2.17;62.79;100490.47;1763858;79;20267;-35
2021/03/09 07:31:11;;;;;;;;;;;;;;;-2.07;62.25;100487.13;1763409;80;20585;-40
2021/03/09 07:34:21;;;;;;;;;;;;;;;-1.96;60.91;100490.74;1757449;79;20541;-35
2021/03/09 07:36:56;;;;;;;;;;;;;;;-1.90;60.78;100492.75;1734860;80;20306;-40
2021/03/09 07:39:24;;;;;;;;;;;;;;;-1.86;60.43;100489.52;1744604;81;20295;-39
2021/03/09 07:42:17;;;;;;;;;;;;;;;-1.84;60.38;100491.79;1761794;80;20522;-36
2021/03/09 07:44:45;;;;;;;;;;;;;;;-1.77;59.65;100490.42;1758158;80;20162;-35
2021/03/09 07:47:13;;;;;;;;;;;;;;;-1.71;59.69;100495.88;1752634;80;20504;-35
2021/03/09 07:49:53;;;;;;;;;;;;;;;-1.63;59.14;100503.55;1734364;80;20647;-36
2021/03/09 07:52:21;;;;;;;;;;;;;;;-1.57;59.84;100503.87;1751263;80;20187;-40
2021/03/09 07:55:07;;;;;;;;;;;;;;;-1.47;58.51;100510.36;1749095;79;20177;-38
2021/03/09 07:57:37;;;;;;;;;;;;;;;-1.44;56.80;100509.25;1725990;80;20474;-40
2021/03/09 08:00:09;;;;;;;;;;;;;;;-1.47;55.75;100501.38;1738646;81;20204;-33
2021/03/09 08:02:57;;;;;;;;;;;;;;;-1.58;54.13;100504.67;1744090;81;20172;-34
2021/03/09 08:05:26;;;;;;;;;;;;;;;-1.68;54.97;100513.60;1721279;80;20569;-34
2021/03/09 08:08:06;;;;;;;;;;;;;;;-1.74;53.39;100506.87;1737110;82;20217;-34
2021/03/09 08:10:40;;;;;;;;;;;;;;;-1.75;52.65;100517.02;1757345;81;20232;-38
2021/03/09 08:13:15;;;;;;;;;;;;;;;-1.79;52.26;100508.31;1751441;79;20477;-39
2021/03/09 08:15:47;;;;;;;;;;;;;;;-1.78;53.13;100511.34;1727424;81;20174;-39
2021/03/09 08:18:26;;;;;;;;;;;;;;;-1.76;51.46;100502.44;1742388;80;20181;-39
2021/03/09 09:13:49;;;;;;;;;;;;;;;-1.28;46.68;100522.04;1770364;79;20303;-40
2021/03/09 09:16:17;;;;;;;;;;;;;;;-1.26;47.46;100518.29;1758816;78;20663;-40
2021/03/09 09:18:45;;;;;;;;;;;;;;;-1.29;47.20;100522.85;1760015;79;20266;-40
2021/03/09 09:21:13;;;;;;;;;;;;;;;-1.38;47.89;100525.84;1766917;79;20173;-40
2021/03/09 09:23:46;;;;;;;;;;;;;;;-1.42;48.64;100530.33;1770056;79;20192;-39
2021/03/09 09:26:18;;;;;;;;;;;;;;;-1.41;50.51;100525.67;1726813;81;20196;-40
2021/03/09 09:29:01;;;;;;;;;;;;;;;-1.36;50.26;100537.06;1732562;80;20202;-39
2021/03/09 09:31:30;;;;;;;;;;;;;;;-1.30;51.47;100531.77;1723474;80;20173;-35
2021/03/09 09:33:59;;;;;;;;;;;;;;;-1.22;51.38;100536.47;1770240;79;20183;-35
2021/03/09 09:36:27;;;;;;;;;;;;;;;-1.21;50.95;100546.38;1768129;79;20610;-40
2021/03/09 09:38:59;;;;;;;;;;;;;;;-1.30;51.29;100549.33;1774061;79;20263;-39
2021/03/09 09:41:41;;;;;;;;;;;;;;;-1.36;51.66;100552.47;1754151;79;20197;-35
2021/03/09 09:44:09;;;;;;;;;;;;;;;-1.35;52.13;100554.22;1718722;82;20195;-35
2021/03/09 09:46:41;;;;;;;;;;;;;;;-1.29;52.75;100552.78;1756385;79;20516;-34
2021/03/09 09:49:11;;;;;;;;;;;;;;;-1.24;53.50;100555.19;1741853;81;20165;-39
2021/03/09 09:51:40;;;;;;;;;;;;;;;-1.16;52.30;100552.22;1737684;80;20229;-39
2021/03/09 09:54:12;;;;;;;;;;;;;;;-1.15;53.04;100548.84;1751646;80;20539;-39
2021/03/09 09:56:40;;;;;;;;;;;;;;;-1.16;53.30;100552.59;1721255;81;20206;-40
2021/03/09 09:59:09;;;;;;;;;;;;;;;-1.19;54.07;100555.90;1766117;79;20530;-36
2021/03/09 10:01:40;;;;;;;;;;;;;;;-1.13;53.44;100554.05;1728504;81;20459;-41
2021/03/09 10:04:09;;;;;;;;;;;;;;;-1.08;54.10;100543.61;1768727;79;20495;-35
2021/03/09 10:06:51;;;;;;;;;;;;;;;-1.00;54.49;100550.00;1763569;79;20174;-41
2021/03/09 10:09:23;;;;;;;;;;;;;;;-0.85;54.79;100557.60;1767515;79;20319;-40
2021/03/09 10:11:53;;;;;;;;;;;;;;;-0.75;54.43;100553.41;1712174;80;20213;-41
2021/03/09 10:14:23;;;;;;;;;;;;;;;-0.69;54.16;100553.70;1729572;80;20164;-42
2021/03/09 10:16:51;;;;;;;;;;;;;;;-0.65;53.59;100547.88;1730698;80;20503;-36
2021/03/09 10:19:21;;;;;;;;;;;;;;;-0.65;53.77;100560.73;1729762;81;20234;-41
2021/03/09 10:21:49;;;;;;;;;;;;;;;-0.72;52.63;100561.25;1759419;79;20327;-41
2021/03/09 10:24:30;;;;;;;;;;;;;;;-0.82;53.27;100556.45;1727042;81;20572;-36
2021/03/09 10:27:05;;;;;;;;;;;;;;;-0.88;52.34;100563.45;1766041;79;20221;-41
2021/03/09 10:29:33;;;;;;;;;;;;;;;-0.98;53.27;100569.36;1747166;80;20478;-40
2021/03/09 10:32:12;;;;;;;;;;;;;;;-1.07;53.95;100564.62;1735381;79;20195;-41
2021/03/09 10:34:56;;;;;;;;;;;;;;;-1.13;54.29;100564.32;1773923;79;20613;-35
2021/03/09 10:37:38;;;;;;;;;;;;;;;-1.19;54.31;100558.47;1737503;81;20912;-36
2021/03/09 10:40:07;;;;;;;;;;;;;;;-1.17;54.94;100558.53;1771262;79;20576;-42
2021/03/09 10:42:41;;;;;;;;;;;;;;;-1.11;54.23;100557.56;1726064;81;20587;-42
2021/03/09 10:45:20;;;;;;;;;;;;;;;-1.02;53.72;100560.61;1768677;79;20166;-40
2021/03/09 10:47:52;;;;;;;;;;;;;;;-0.96;53.74;100557.47;1772370;79;20194;-41
2021/03/09 10:50:23;;;;;;;;;;;;;;;-0.85;53.46;100552.46;1721555;80;20213;-42
2021/03/09 10:52:54;;;;;;;;;;;;;;;-0.81;51.88;100556.95;1740565;80;20354;-41
2021/03/09 10:55:24;;;;;;;;;;;;;;;-0.80;52.44;100562.57;1746455;79;20487;-40
2021/03/09 10:57:54;;;;;;;;;;;;;;;-0.82;49.99;100553.88;1761009;79;20623;-36
2021/03/09 11:00:24;;;;;;;;;;;;;;;-0.85;51.33;100553.75;1749981;79;20163;-41
2021/03/09 11:02:54;;;;;;;;;;;;;;;-0.86;51.95;100554.16;1744923;79;20190;-42
2021/03/09 11:05:24;;;;;;;;;;;;;;;-0.84;52.16;100555.09;1742688;80;20203;-41
2021/03/09 11:08:04;;;;;;;;;;;;;;;-0.83;51.48;100554.29;1720720;80;20178;-36
2021/03/09 11:10:32;;;;;;;;;;;;;;;-0.79;51.56;100547.62;1728426;81;20310;-36
2021/03/09 11:13:55;;;;;;;;;;;;;;;-0.73;51.70;100553.47;1742756;80;20201;-41
2021/03/09 11:17:38;;;;;;;;;;;;;;;-0.66;50.30;100546.53;1732083;80;20174;-36
2021/03/09 11:20:57;;;;;;;;;;;;;;;-0.68;50.25;100546.47;1739627;79;20172;-41
2021/03/09 11:27:29;;;;;;;;;;;;;;;-0.98;55.98;100552.67;1758496;79;20565;-36
2021/03/09 11:29:57;;;;;;;;;;;;;;;-1.17;57.11;100554.28;1764339;79;20350;-40
2021/03/09 11:32:30;;;;;;;;;;;;;;;-1.32;58.11;100559.06;1762631;79;20213;-41
2021/03/09 11:34:58;;;;;;;;;;;;;;;-1.41;58.37;100560.33;1763726;79;20499;-37
2021/03/09 11:37:25;;;;;;;;;;;;;;;-1.46;59.65;100561.77;1771702;79;20170;-40
2021/03/09 11:39:52;;;;;;;;;;;;;;;-1.43;61.63;100567.08;1765683;78;20552;-36
2021/03/09 11:42:20;;;;;;;;;;;;;;;-1.43;62.20;100564.91;1777550;79;20201;-37
2021/03/09 11:44:48;;;;;;;;;;;;;;;-1.46;62.42;100569.47;1771714;79;20276;-37
2021/03/09 11:47:18;;;;;;;;;;;;;;;-1.44;62.00;100573.02;1766936;78;20165;-42
2021/03/09 11:49:46;;;;;;;;;;;;;;;-1.36;62.06;100579.83;1740680;81;20170;-37
2021/03/09 11:52:14;;;;;;;;;;;;;;;-1.27;62.11;100580.31;1736486;81;20161;-36
2021/03/09 11:54:44;;;;;;;;;;;;;;;-1.17;60.54;100577.80;1751783;80;20159;-36
2021/03/09 11:57:13;;;;;;;;;;;;;;;-1.11;59.93;100571.69;1731029;81;20197;-40
2021/03/09 11:59:41;;;;;;;;;;;;;;;-1.05;59.12;100571.12;1747088;81;20504;-36
2021/03/09 12:02:09;;;;;;;;;;;;;;;-1.03;58.82;100574.67;1724637;80;20456;-40
2021/03/09 12:04:40;;;;;;;;;;;;;;;-1.04;58.72;100580.20;1761569;79;20740;-37
2021/03/09 12:07:07;;;;;;;;;;;;;;;-1.09;57.39;100575.23;1754787;80;20775;-36
2021/03/09 12:09:34;;;;;;;;;;;;;;;-1.16;58.19;100589.45;1766015;79;20476;-42
2021/03/09 12:12:03;;;;;;;;;;;;;;;-1.16;57.59;100585.60;1759209;79;20175;-37
2021/03/09 12:14:31;;;;;;;;;;;;;;;-1.19;57.94;100588.00;1721290;81;20199;-37
2021/03/09 12:16:58;;;;;;;;;;;;;;;-1.20;56.72;100595.22;1718861;81;20199;-36
2021/03/09 12:19:25;;;;;;;;;;;;;;;-1.24;55.81;100594.98;1763308;79;20169;-36
2021/03/09 12:21:53;;;;;;;;;;;;;;;-1.26;56.35;100596.59;1751683;79;20476;-37
2021/03/09 12:24:20;;;;;;;;;;;;;;;-1.26;56.08;100592.75;1764456;79;20213;-35
2021/03/09 12:26:47;;;;;;;;;;;;;;;-1.20;56.55;100593.94;1732283;80;20165;-35
2021/03/09 12:29:14;;;;;;;;;;;;;;;-1.09;54.57;100595.78;1765101;79;20457;-35
2021/03/09 12:31:41;;;;;;;;;;;;;;;-1.00;53.89;100597.92;1726972;80;20195;-35
2021/03/09 12:34:08;;;;;;;;;;;;;;;-0.93;53.64;100589.72;1760927;80;20197;-36
2021/03/09 12:36:36;;;;;;;;;;;;;;;-0.82;52.95;100599.72;1716952;81;20179;-36
2021/03/09 12:39:03;;;;;;;;;;;;;;;-0.78;51.26;100594.34;1732299;81;20169;-41
2021/03/09 12:41:31;;;;;;;;;;;;;;;-0.81;51.70;100594.21;1765648;79;20353;-37
2021/03/09 12:43:59;;;;;;;;;;;;;;;-0.79;52.06;100599.42;1734403;81;20456;-39
2021/03/09 12:46:26;;;;;;;;;;;;;;;-0.81;51.59;100598.95;1745504;80;20176;-37
2021/03/09 12:48:54;;;;;;;;;;;;;;;-0.83;51.52;100605.67;1742514;80;20505;-36
2021/03/09 12:51:22;;;;;;;;;;;;;;;-0.85;52.09;100599.99;1746855;80;20170;-36
2021/03/09 12:53:49;;;;;;;;;;;;;;;-0.91;51.86;100595.83;1749291;80;20203;-35
2021/03/09 12:56:20;;;;;;;;;;;;;;;-0.96;52.55;100609.72;1740876;81;20484;-35
2021/03/09 12:58:49;;;;;;;;;;;;;;;-1.02;51.82;100611.09;1737645;81;20603;-35
2021/03/09 13:01:17;;;;;;;;;;;;;;;-1.13;51.71;100624.66;1770588;79;20173;-35
2021/03/09 13:03:44;;;;;;;;;;;;;;;-1.23;52.89;100619.84;1770620;79;20189;-36
2021/03/09 13:06:11;;;;;;;;;;;;;;;-1.39;54.90;100623.31;1742158;81;20193;-36
2021/03/09 13:08:38;;;;;;;;;;;;;;;-1.53;56.06;100629.38;1769118;79;20171;-36
2021/03/09 13:11:05;;;;;;;;;;;;;;;-1.67;57.35;100626.97;1738329;80;20164;-37
2021/03/09 13:13:33;;;;;;;;;;;;;;;-1.77;58.39;100633.67;1729249;82;20224;-36
2021/03/09 13:16:00;;;;;;;;;;;;;;;-1.84;59.10;100626.86;1776947;79;20145;-36
2021/03/09 13:18:27;;;;;;;;;;;;;;;-1.89;59.35;100627.48;1716812;81;20262;-35
2021/03/09 13:20:54;;;;;;;;;;;;;;;-1.90;59.62;100630.84;1724665;80;20181;-37
2021/03/09 13:23:22;;;;;;;;;;;;;;;-1.92;59.68;100625.12;1767670;79;20546;-37
2021/03/09 13:25:49;;;;;;;;;;;;;;;-1.90;59.93;100626.13;1767115;79;20470;-34
2021/03/09 13:28:16;;;;;;;;;;;;;;;-1.85;59.57;100625.98;1767870;79;20172;-36
2021/03/09 13:30:44;;;;;;;;;;;;;;;-1.80;59.36;100624.92;1738900;81;20180;-36
2021/03/09 13:33:11;;;;;;;;;;;;;;;-1.73;59.27;100625.36;1765148;79;20201;-36
2021/03/09 13:35:39;;;;;;;;;;;;;;;-1.64;58.93;100626.23;1758060;80;20168;-35
2021/03/09 13:38:07;;;;;;;;;;;;;;;-1.55;58.41;100620.33;1751077;79;20157;-36
2021/03/09 13:40:35;;;;;;;;;;;;;;;-1.47;58.25;100616.47;1767961;78;20499;-43
2021/03/09 13:43:04;;;;;;;;;;;;;;;-1.38;58.52;100616.09;1770051;78;20158;-34
2021/03/09 13:45:31;;;;;;;;;;;;;;;-1.29;58.40;100613.98;1764415;79;20179;-40
2021/03/09 13:47:59;;;;;;;;;;;;;;;-1.18;57.18;100615.43;1764238;79;20158;-37
2021/03/09 13:50:26;;;;;;;;;;;;;;;-1.14;57.42;100621.22;1763623;78;20606;-34
2021/03/09 13:52:53;;;;;;;;;;;;;;;-1.16;56.46;100621.92;1758299;79;20552;-35
2021/03/09 13:55:21;;;;;;;;;;;;;;;-1.22;56.31;100619.04;1770149;79;20304;-35
2021/03/09 13:57:48;;;;;;;;;;;;;;;-1.24;56.40;100622.81;1776298;79;20165;-35
2021/03/09 14:00:16;;;;;;;;;;;;;;;-1.21;56.73;100618.27;1772615;78;20359;-42
2021/03/09 14:02:45;;;;;;;;;;;;;;;-1.22;56.40;100620.32;1765044;78;20169;-36
2021/03/09 14:05:13;;;;;;;;;;;;;;;-1.25;56.19;100624.03;1759587;81;20170;-36
2021/03/09 14:07:41;;;;;;;;;;;;;;;-1.32;58.70;100629.66;1775299;79;20262;-36
2021/03/09 14:10:09;;;;;;;;;;;;;;;-1.51;62.04;100645.73;1778323;80;20165;-41
2021/03/09 14:12:36;;;;;;;;;;;;;;;-1.77;64.34;100639.20;1778565;78;20166;-41
2021/03/09 14:15:05;;;;;;;;;;;;;;;-2.00;66.37;100645.64;1771445;78;20177;-36
2021/03/09 14:17:33;;;;;;;;;;;;;;;-2.23;68.03;100640.10;1783905;79;20575;-41
2021/03/09 14:20:01;;;;;;;;;;;;;;;-2.44;69.44;100648.72;1770161;78;20158;-41
2021/03/09 14:22:28;;;;;;;;;;;;;;;-2.60;70.58;100651.63;1761535;81;20162;-41
2021/03/09 14:24:55;;;;;;;;;;;;;;;-2.73;70.22;100643.20;1769145;80;20446;-41
2021/03/09 14:27:24;;;;;;;;;;;;;;;-2.78;69.42;100642.47;1754460;80;20153;-41
2021/03/09 14:29:53;;;;;;;;;;;;;;;-2.77;69.08;100636.16;1757231;80;20292;-42
2021/03/09 14:32:20;;;;;;;;;;;;;;;-2.72;68.75;100632.19;1742580;80;20172;-41
2021/03/09 14:34:47;;;;;;;;;;;;;;;-2.63;68.29;100636.94;1765291;80;20171;-36
2021/03/09 14:37:15;;;;;;;;;;;;;;;-2.54;67.45;100635.33;1743910;81;20598;-41
2021/03/09 14:39:42;;;;;;;;;;;;;;;-2.46;66.33;100638.80;1755202;80;20572;-36
2021/03/09 14:42:11;;;;;;;;;;;;;;;-2.39;65.85;100640.42;1722248;83;20459;-36
2021/03/09 14:44:38;;;;;;;;;;;;;;;-2.34;65.82;100641.17;1748653;81;20171;-36
2021/03/09 14:47:06;;;;;;;;;;;;;;;-2.27;65.53;100638.16;1737842;82;20202;-42
2021/03/09 14:49:33;;;;;;;;;;;;;;;-2.20;65.36;100639.01;1747477;81;20441;-41
2021/03/09 14:52:00;;;;;;;;;;;;;;;-2.15;65.02;100641.41;1748078;82;20166;-41
